sensor_id;sensor_type;location;lat;lon;timestamp;pressure;altitude;pressure_sealevel;temperature;humidity
13434;BME280;6789;47.678;9.158;2022-12-05T00:01:24;96616.44;;;3.52;100.00
13434;BME280;6789;47.678;9.158;2022-12-05T00:06:17;96621.38;;;3.47;100.00
13434;BME280;6789;47.678;9.158;2022-12-05T00:11:21;96620.81;;;3.51;100.00
13434;BME280;6789;47.678;9.158;2022-12-05T00:16:17;96610.19;;;3.46;100.00
13434;BME280;6789;47.678;9.158;2022-12-05T00:21:20;96620.66;;;3.38;100.00
13434;BME280;6789;47.678;9.158;2022-12-05T00:26:12;96616.75;;;3.42;100.00
13434;BME280;6789;47.678;9.158;2022-12-05T00:31:07;96604.34;;;3.38;100.00
13434;BME280;6789;47.678;9.158;2022-12-05T00:36:23;96611.41;;;3.29;100.00
13434;BME280;6789;47.678;9.158;2022-12-05T00:41:19;96617.03;;;3.33;100.00
13434;BME280;6789;47.678;9.158;2022-12-05T00:46:15;96632.59;;;3.33;100.00
13434;BME280;6789;47.678;9.158;2022-12-05T00:51:15;96663.69;;;3.33;100.00
13434;BME280;6789;47.678;9.158;2022-12-05T00:56:14;96673.50;;;3.37;100.00
13434;BME280;6789;47.678;9.158;2022-12-05T01:01:07;96678.66;;;3.52;100.00
13434;BME280;6789;47.678;9.158;2022-12-05T01:05:59;96689.47;;;3.55;100.00
13434;BME280;6789;47.678;9.158;2022-12-05T01:10:56;96677.63;;;3.67;100.00
13434;BME280;6789;47.678;9.158;2022-12-05T01:15:48;96685.31;;;3.75;100.00
13434;BME280;6789;47.678;9.158;2022-12-05T01:20:41;96696.09;;;3.78;100.00
13434;BME280;6789;47.678;9.158;2022-12-05T01:25:38;96688.22;;;3.86;100.00
13434;BME280;6789;47.678;9.158;2022-12-05T01:30:30;96702.06;;;3.93;100.00
13434;BME280;6789;47.678;9.158;2022-12-05T01:35:22;96697.69;;;4.15;100.00
13434;BME280;6789;47.678;9.158;2022-12-05T01:40:14;96691.44;;;4.30;100.00
13434;BME280;6789;47.678;9.158;2022-12-05T01:50:22;96700.28;;;4.15;100.00
13434;BME280;6789;47.678;9.158;2022-12-05T01:55:16;96706.88;;;4.17;100.00
13434;BME280;6789;47.678;9.158;2022-12-05T02:00:14;96718.44;;;4.15;100.00
13434;BME280;6789;47.678;9.158;2022-12-05T02:05:23;96728.47;;;4.18;100.00
13434;BME280;6789;47.678;9.158;2022-12-05T02:10:16;96740.69;;;4.23;100.00
13434;BME280;6789;47.678;9.158;2022-12-05T02:16:31;96735.75;;;4.28;100.00
13434;BME280;6789;47.678;9.158;2022-12-05T02:26:54;96722.25;;;4.39;100.00
13434;BME280;6789;47.678;9.158;2022-12-05T02:37:49;96726.66;;;4.39;100.00
13434;BME280;6789;47.678;9.158;2022-12-05T02:43:05;96727.66;;;4.38;100.00
13434;BME280;6789;47.678;9.158;2022-12-05T02:47:59;96718.44;;;4.35;100.00
13434;BME280;6789;47.678;9.158;2022-12-05T02:52:55;96724.38;;;4.29;100.00
13434;BME280;6789;47.678;9.158;2022-12-05T02:57:54;96721.78;;;4.29;100.00
13434;BME280;6789;47.678;9.158;2022-12-05T03:02:53;96732.94;;;4.30;100.00
13434;BME280;6789;47.678;9.158;2022-12-05T03:07:50;96739.22;;;4.35;100.00
13434;BME280;6789;47.678;9.158;2022-12-05T03:12:54;96735.25;;;4.39;100.00
13434;BME280;6789;47.678;9.158;2022-12-05T03:17:54;96739.88;;;4.44;100.00
13434;BME280;6789;47.678;9.158;2022-12-05T03:23:02;96745.50;;;4.47;100.00
13434;BME280;6789;47.678;9.158;2022-12-05T03:28:13;96748.34;;;4.52;100.00
13434;BME280;6789;47.678;9.158;2022-12-05T03:33:27;96741.19;;;4.54;100.00
13434;BME280;6789;47.678;9.158;2022-12-05T03:38:34;96747.59;;;4.58;100.00
13434;BME280;6789;47.678;9.158;2022-12-05T03:43:34;96755.81;;;4.62;100.00
13434;BME280;6789;47.678;9.158;2022-12-05T03:48:57;96754.84;;;4.63;100.00
13434;BME280;6789;47.678;9.158;2022-12-05T03:54:06;96748.78;;;4.56;100.00
13434;BME280;6789;47.678;9.158;2022-12-05T03:59:27;96739.31;;;4.48;100.00
13434;BME280;6789;47.678;9.158;2022-12-05T04:04:30;96738.47;;;4.41;100.00
13434;BME280;6789;47.678;9.158;2022-12-05T04:09:30;96744.16;;;4.30;100.00
13434;BME280;6789;47.678;9.158;2022-12-05T04:14:46;96726.09;;;4.22;100.00
13434;BME280;6789;47.678;9.158;2022-12-05T04:19:54;96724.06;;;4.18;100.00
13434;BME280;6789;47.678;9.158;2022-12-05T04:25:12;96731.19;;;4.30;100.00
13434;BME280;6789;47.678;9.158;2022-12-05T04:30:36;96749.59;;;4.35;100.00
13434;BME280;6789;47.678;9.158;2022-12-05T04:35:40;96755.88;;;4.47;100.00
13434;BME280;6789;47.678;9.158;2022-12-05T04:40:40;96758.09;;;4.50;100.00
13434;BME280;6789;47.678;9.158;2022-12-05T04:45:36;96760.97;;;4.55;100.00
13434;BME280;6789;47.678;9.158;2022-12-05T04:50:32;96760.56;;;4.58;100.00
13434;BME280;6789;47.678;9.158;2022-12-05T04:55:26;96765.34;;;4.55;100.00
13434;BME280;6789;47.678;9.158;2022-12-05T05:00:18;96768.75;;;4.55;100.00
13434;BME280;6789;47.678;9.158;2022-12-05T05:05:19;96766.31;;;4.54;100.00
13434;BME280;6789;47.678;9.158;2022-12-05T05:10:20;96765.78;;;4.58;100.00
13434;BME280;6789;47.678;9.158;2022-12-05T05:15:28;96774.78;;;4.62;100.00
13434;BME280;6789;47.678;9.158;2022-12-05T05:20:22;96779.63;;;4.65;100.00
13434;BME280;6789;47.678;9.158;2022-12-05T05:25:14;96778.09;;;4.71;100.00
13434;BME280;6789;47.678;9.158;2022-12-05T05:30:22;96800.72;;;4.77;100.00
13434;BME280;6789;47.678;9.158;2022-12-05T05:35:19;96812.63;;;4.71;100.00
13434;BME280;6789;47.678;9.158;2022-12-05T05:40:12;96812.88;;;4.76;100.00
13434;BME280;6789;47.678;9.158;2022-12-05T05:45:18;96817.63;;;4.93;100.00
13434;BME280;6789;47.678;9.158;2022-12-05T05:50:11;96837.06;;;4.77;100.00
13434;BME280;6789;47.678;9.158;2022-12-05T05:55:10;96835.66;;;4.74;100.00
13434;BME280;6789;47.678;9.158;2022-12-05T06:00:06;96840.56;;;4.69;100.00
13434;BME280;6789;47.678;9.158;2022-12-05T06:05:12;96836.78;;;4.72;100.00
13434;BME280;6789;47.678;9.158;2022-12-05T06:10:18;96841.88;;;4.80;100.00
13434;BME280;6789;47.678;9.158;2022-12-05T06:15:19;96845.03;;;4.75;100.00
13434;BME280;6789;47.678;9.158;2022-12-05T06:20:11;96852.38;;;4.72;100.00
13434;BME280;6789;47.678;9.158;2022-12-05T06:25:05;96883.72;;;4.70;100.00
13434;BME280;6789;47.678;9.158;2022-12-05T06:30:12;96875.19;;;4.76;100.00
13434;BME280;6789;47.678;9.158;2022-12-05T06:35:05;96868.03;;;4.78;100.00
13434;BME280;6789;47.678;9.158;2022-12-05T06:40:06;96860.25;;;4.78;100.00
13434;BME280;6789;47.678;9.158;2022-12-05T06:45:05;96865.25;;;4.80;100.00
13434;BME280;6789;47.678;9.158;2022-12-05T06:50:11;96876.22;;;4.96;100.00
13434;BME280;6789;47.678;9.158;2022-12-05T06:55:17;96878.69;;;4.83;100.00
13434;BME280;6789;47.678;9.158;2022-12-05T07:00:13;96895.00;;;4.77;100.00
13434;BME280;6789;47.678;9.158;2022-12-05T07:05:38;96903.22;;;4.81;100.00
13434;BME280;6789;47.678;9.158;2022-12-05T07:10:34;96910.47;;;4.85;100.00
13434;BME280;6789;47.678;9.158;2022-12-05T07:15:26;96916.28;;;4.87;100.00
13434;BME280;6789;47.678;9.158;2022-12-05T07:20:19;96918.47;;;4.84;100.00
13434;BME280;6789;47.678;9.158;2022-12-05T07:25:13;96936.06;;;4.88;100.00
13434;BME280;6789;47.678;9.158;2022-12-05T07:30:05;96930.78;;;4.96;100.00
13434;BME280;6789;47.678;9.158;2022-12-05T07:35:12;96935.84;;;5.04;100.00
13434;BME280;6789;47.678;9.158;2022-12-05T07:40:17;96921.88;;;5.05;100.00
13434;BME280;6789;47.678;9.158;2022-12-05T07:45:24;96929.28;;;5.08;100.00
13434;BME280;6789;47.678;9.158;2022-12-05T07:50:31;96938.16;;;5.13;100.00
13434;BME280;6789;47.678;9.158;2022-12-05T07:55:46;96956.38;;;5.20;100.00
13434;BME280;6789;47.678;9.158;2022-12-05T08:00:52;96964.63;;;5.23;100.00
13434;BME280;6789;47.678;9.158;2022-12-05T08:06:09;96969.28;;;5.28;100.00
13434;BME280;6789;47.678;9.158;2022-12-05T08:11:25;96978.38;;;5.38;100.00
13434;BME280;6789;47.678;9.158;2022-12-05T08:16:31;96984.19;;;5.40;100.00
13434;BME280;6789;47.678;9.158;2022-12-05T08:21:43;96988.59;;;5.40;100.00
13434;BME280;6789;47.678;9.158;2022-12-05T08:26:49;96982.88;;;5.51;100.00
13434;BME280;6789;47.678;9.158;2022-12-05T08:32:20;96984.50;;;5.52;100.00
13434;BME280;6789;47.678;9.158;2022-12-05T08:38:09;96981.09;;;5.51;100.00
13434;BME280;6789;47.678;9.158;2022-12-05T08:43:15;96988.59;;;5.40;100.00
13434;BME280;6789;47.678;9.158;2022-12-05T08:48:22;96993.00;;;5.39;100.00
13434;BME280;6789;47.678;9.158;2022-12-05T08:53:27;96993.41;;;5.43;100.00
13434;BME280;6789;47.678;9.158;2022-12-05T08:58:34;96997.50;;;5.52;100.00
13434;BME280;6789;47.678;9.158;2022-12-05T09:03:43;96995.75;;;5.59;100.00
13434;BME280;6789;47.678;9.158;2022-12-05T09:08:56;96996.94;;;5.56;100.00
13434;BME280;6789;47.678;9.158;2022-12-05T09:14:04;96989.56;;;5.60;100.00
13434;BME280;6789;47.678;9.158;2022-12-05T09:19:16;97009.31;;;5.75;100.00
13434;BME280;6789;47.678;9.158;2022-12-05T09:24:23;97013.50;;;5.90;100.00
13434;BME280;6789;47.678;9.158;2022-12-05T09:29:29;96996.72;;;5.99;100.00
13434;BME280;6789;47.678;9.158;2022-12-05T09:34:22;97005.25;;;5.87;100.00
13434;BME280;6789;47.678;9.158;2022-12-05T09:39:30;97014.66;;;5.88;100.00
13434;BME280;6789;47.678;9.158;2022-12-05T09:45:11;97017.19;;;6.02;100.00
13434;BME280;6789;47.678;9.158;2022-12-05T09:55:42;96998.16;;;6.29;100.00
13434;BME280;6789;47.678;9.158;2022-12-05T10:00:42;97004.09;;;6.50;100.00
13434;BME280;6789;47.678;9.158;2022-12-05T10:06:11;97014.53;;;6.57;100.00
13434;BME280;6789;47.678;9.158;2022-12-05T10:11:38;97006.56;;;6.65;99.80
13434;BME280;6789;47.678;9.158;2022-12-05T10:16:53;97006.78;;;6.63;97.79
13434;BME280;6789;47.678;9.158;2022-12-05T10:22:21;97009.19;;;6.71;98.48
13434;BME280;6789;47.678;9.158;2022-12-05T10:27:44;96988.56;;;6.70;97.32
13434;BME280;6789;47.678;9.158;2022-12-05T10:33:13;96999.59;;;6.72;97.04
13434;BME280;6789;47.678;9.158;2022-12-05T10:38:24;96999.66;;;6.85;96.95
13434;BME280;6789;47.678;9.158;2022-12-05T10:43:33;96986.78;;;6.83;96.71
13434;BME280;6789;47.678;9.158;2022-12-05T10:48:42;96973.19;;;6.81;96.68
13434;BME280;6789;47.678;9.158;2022-12-05T10:53:49;96990.75;;;6.73;96.19
13434;BME280;6789;47.678;9.158;2022-12-05T10:58:57;96980.75;;;6.76;96.06
13434;BME280;6789;47.678;9.158;2022-12-05T11:04:26;96969.53;;;6.69;94.62
13434;BME280;6789;47.678;9.158;2022-12-05T11:10:32;96971.56;;;6.80;95.11
13434;BME280;6789;47.678;9.158;2022-12-05T11:15:31;96978.75;;;6.72;93.91
13434;BME280;6789;47.678;9.158;2022-12-05T11:21:13;96967.91;;;6.75;93.92
13434;BME280;6789;47.678;9.158;2022-12-05T11:26:36;96978.69;;;6.65;94.03
13434;BME280;6789;47.678;9.158;2022-12-05T11:31:50;96974.75;;;6.76;94.10
13434;BME280;6789;47.678;9.158;2022-12-05T11:37:13;96957.56;;;6.88;92.25
13434;BME280;6789;47.678;9.158;2022-12-05T11:42:54;96956.38;;;6.97;91.54
13434;BME280;6789;47.678;9.158;2022-12-05T12:05:26;96931.59;;;7.39;90.28
13434;BME280;6789;47.678;9.158;2022-12-05T12:11:25;96934.59;;;7.36;88.07
13434;BME280;6789;47.678;9.158;2022-12-05T12:16:54;96936.44;;;7.49;88.50
13434;BME280;6789;47.678;9.158;2022-12-05T12:33:40;96927.56;;;7.76;86.83
13434;BME280;6789;47.678;9.158;2022-12-05T12:45:34;96940.03;;;7.74;85.55
13434;BME280;6789;47.678;9.158;2022-12-05T12:50:30;96938.84;;;7.76;85.54
13434;BME280;6789;47.678;9.158;2022-12-05T13:06:26;96949.06;;;7.52;86.68
13434;BME280;6789;47.678;9.158;2022-12-05T13:11:22;96944.66;;;7.52;86.65
13434;BME280;6789;47.678;9.158;2022-12-05T13:16:34;96939.84;;;7.56;86.37
13434;BME280;6789;47.678;9.158;2022-12-05T13:21:37;96933.63;;;7.63;86.11
13434;BME280;6789;47.678;9.158;2022-12-05T13:26:48;96939.84;;;7.75;86.54
13434;BME280;6789;47.678;9.158;2022-12-05T13:31:57;96944.88;;;7.70;85.99
13434;BME280;6789;47.678;9.158;2022-12-05T13:37:23;96945.66;;;7.64;85.24
13434;BME280;6789;47.678;9.158;2022-12-05T13:42:38;96941.03;;;7.66;85.81
13434;BME280;6789;47.678;9.158;2022-12-05T13:52:55;96931.00;;;7.70;86.13
13434;BME280;6789;47.678;9.158;2022-12-05T14:08:52;96929.78;;;7.72;86.46
13434;BME280;6789;47.678;9.158;2022-12-05T14:26:06;96925.97;;;7.68;85.75
13434;BME280;6789;47.678;9.158;2022-12-05T14:31:37;96934.00;;;7.54;86.66
13434;BME280;6789;47.678;9.158;2022-12-05T14:37:35;96932.78;;;7.43;88.39
13434;BME280;6789;47.678;9.158;2022-12-05T14:43:03;96937.59;;;7.40;87.87
13434;BME280;6789;47.678;9.158;2022-12-05T14:58:51;96930.34;;;7.09;89.50
13434;BME280;6789;47.678;9.158;2022-12-05T15:10:22;96948.00;;;6.61;92.29
13434;BME280;6789;47.678;9.158;2022-12-05T15:16:01;96958.47;;;6.27;95.50
13434;BME280;6789;47.678;9.158;2022-12-05T15:21:25;96961.34;;;6.05;98.29
13434;BME280;6789;47.678;9.158;2022-12-05T15:26:54;96962.03;;;5.92;99.52
13434;BME280;6789;47.678;9.158;2022-12-05T15:37:22;96970.50;;;5.73;100.00
13434;BME280;6789;47.678;9.158;2022-12-05T15:42:36;96970.44;;;5.67;100.00
13434;BME280;6789;47.678;9.158;2022-12-05T15:47:53;96971.53;;;5.58;100.00
13434;BME280;6789;47.678;9.158;2022-12-05T15:53:42;96971.56;;;5.37;100.00
13434;BME280;6789;47.678;9.158;2022-12-05T15:59:08;96973.25;;;5.24;100.00
13434;BME280;6789;47.678;9.158;2022-12-05T16:04:34;96982.28;;;5.28;100.00
13434;BME280;6789;47.678;9.158;2022-12-05T16:09:45;96993.09;;;5.31;100.00
13434;BME280;6789;47.678;9.158;2022-12-05T16:14:56;96988.16;;;5.36;100.00
13434;BME280;6789;47.678;9.158;2022-12-05T16:20:24;96988.19;;;5.43;100.00
13434;BME280;6789;47.678;9.158;2022-12-05T16:25:36;96982.41;;;5.41;100.00
13434;BME280;6789;47.678;9.158;2022-12-05T16:31:00;96984.44;;;5.45;100.00
13434;BME280;6789;47.678;9.158;2022-12-05T16:36:12;96989.06;;;5.50;100.00
13434;BME280;6789;47.678;9.158;2022-12-05T16:41:18;96983.88;;;5.50;100.00
13434;BME280;6789;47.678;9.158;2022-12-05T16:51:24;96975.31;;;5.56;100.00
13434;BME280;6789;47.678;9.158;2022-12-05T16:56:29;96982.28;;;5.49;100.00
13434;BME280;6789;47.678;9.158;2022-12-05T17:01:26;96972.28;;;5.52;100.00
13434;BME280;6789;47.678;9.158;2022-12-05T17:06:32;96979.53;;;5.57;100.00
13434;BME280;6789;47.678;9.158;2022-12-05T17:11:34;96979.09;;;5.53;100.00
13434;BME280;6789;47.678;9.158;2022-12-05T17:16:29;96986.13;;;5.53;100.00
13434;BME280;6789;47.678;9.158;2022-12-05T17:21:28;96979.50;;;5.50;100.00
13434;BME280;6789;47.678;9.158;2022-12-05T17:26:22;96975.09;;;5.51;100.00
13434;BME280;6789;47.678;9.158;2022-12-05T17:31:23;96976.34;;;5.55;100.00
13434;BME280;6789;47.678;9.158;2022-12-05T17:36:18;96983.94;;;5.56;100.00
13434;BME280;6789;47.678;9.158;2022-12-05T17:41:24;96981.78;;;5.60;100.00
13434;BME280;6789;47.678;9.158;2022-12-05T17:46:51;96985.25;;;5.66;100.00
13434;BME280;6789;47.678;9.158;2022-12-05T17:51:58;96990.06;;;5.69;100.00
13434;BME280;6789;47.678;9.158;2022-12-05T17:57:16;96990.28;;;5.74;100.00
13434;BME280;6789;47.678;9.158;2022-12-05T18:02:24;96999.72;;;5.75;100.00
13434;BME280;6789;47.678;9.158;2022-12-05T18:07:34;96994.97;;;5.79;100.00
13434;BME280;6789;47.678;9.158;2022-12-05T18:12:26;97004.59;;;5.78;100.00
13434;BME280;6789;47.678;9.158;2022-12-05T18:17:21;97000.69;;;5.89;100.00
13434;BME280;6789;47.678;9.158;2022-12-05T18:23:30;97007.50;;;5.75;100.00
13434;BME280;6789;47.678;9.158;2022-12-05T18:29:31;97004.31;;;5.73;100.00
13434;BME280;6789;47.678;9.158;2022-12-05T18:35:05;97012.84;;;5.67;100.00
13434;BME280;6789;47.678;9.158;2022-12-05T18:40:32;97018.44;;;5.64;100.00
13434;BME280;6789;47.678;9.158;2022-12-05T18:45:39;97029.03;;;5.63;100.00
13434;BME280;6789;47.678;9.158;2022-12-05T18:50:45;97030.56;;;5.58;100.00
13434;BME280;6789;47.678;9.158;2022-12-05T18:55:50;97040.78;;;5.59;100.00
13434;BME280;6789;47.678;9.158;2022-12-05T19:01:12;97036.16;;;5.55;100.00
13434;BME280;6789;47.678;9.158;2022-12-05T19:06:23;97049.47;;;5.45;100.00
13434;BME280;6789;47.678;9.158;2022-12-05T19:11:29;97042.66;;;5.44;100.00
13434;BME280;6789;47.678;9.158;2022-12-05T19:16:37;97049.38;;;5.39;100.00
13434;BME280;6789;47.678;9.158;2022-12-05T19:21:47;97058.44;;;5.28;100.00
13434;BME280;6789;47.678;9.158;2022-12-05T19:26:53;97051.94;;;5.18;100.00
13434;BME280;6789;47.678;9.158;2022-12-05T19:31:59;97053.84;;;5.09;100.00
13434;BME280;6789;47.678;9.158;2022-12-05T19:37:05;97051.25;;;4.95;100.00
13434;BME280;6789;47.678;9.158;2022-12-05T19:42:12;97049.94;;;4.85;100.00
13434;BME280;6789;47.678;9.158;2022-12-05T19:47:18;97051.75;;;4.70;100.00
13434;BME280;6789;47.678;9.158;2022-12-05T19:52:29;97049.16;;;4.55;100.00
13434;BME280;6789;47.678;9.158;2022-12-05T19:57:53;97053.34;;;4.42;100.00
13434;BME280;6789;47.678;9.158;2022-12-05T20:03:32;97055.13;;;4.27;100.00
13434;BME280;6789;47.678;9.158;2022-12-05T20:08:51;97052.50;;;4.13;100.00
13434;BME280;6789;47.678;9.158;2022-12-05T20:14:01;97048.84;;;4.07;100.00
13434;BME280;6789;47.678;9.158;2022-12-05T20:19:38;97045.88;;;4.10;100.00
13434;BME280;6789;47.678;9.158;2022-12-05T20:24:44;97043.19;;;4.04;100.00
13434;BME280;6789;47.678;9.158;2022-12-05T20:29:36;97056.13;;;3.89;100.00
13434;BME280;6789;47.678;9.158;2022-12-05T20:34:43;97061.88;;;3.77;100.00
13434;BME280;6789;47.678;9.158;2022-12-05T20:39:49;97069.06;;;3.75;100.00
13434;BME280;6789;47.678;9.158;2022-12-05T20:44:55;97052.16;;;3.79;100.00
13434;BME280;6789;47.678;9.158;2022-12-05T20:50:01;97051.78;;;3.82;100.00
13434;BME280;6789;47.678;9.158;2022-12-05T20:54:56;97040.13;;;3.86;100.00
13434;BME280;6789;47.678;9.158;2022-12-05T21:00:03;97043.16;;;3.89;100.00
13434;BME280;6789;47.678;9.158;2022-12-05T21:04:55;97032.59;;;3.91;100.00
13434;BME280;6789;47.678;9.158;2022-12-05T21:10:01;97031.34;;;3.87;100.00
13434;BME280;6789;47.678;9.158;2022-12-05T21:15:08;97032.94;;;3.88;100.00
13434;BME280;6789;47.678;9.158;2022-12-05T21:20:05;97027.69;;;3.96;100.00
13434;BME280;6789;47.678;9.158;2022-12-05T21:24:58;97030.75;;;3.99;100.00
13434;BME280;6789;47.678;9.158;2022-12-05T21:30:04;97034.81;;;3.94;100.00
13434;BME280;6789;47.678;9.158;2022-12-05T21:34:57;97036.19;;;3.90;100.00
13434;BME280;6789;47.678;9.158;2022-12-05T21:39:51;97022.69;;;3.94;100.00
13434;BME280;6789;47.678;9.158;2022-12-05T21:44:57;97029.31;;;3.97;100.00
13434;BME280;6789;47.678;9.158;2022-12-05T21:49:51;97025.53;;;3.85;100.00
13434;BME280;6789;47.678;9.158;2022-12-05T21:54:47;97019.69;;;3.83;100.00
13434;BME280;6789;47.678;9.158;2022-12-05T21:59:53;97020.97;;;3.87;100.00
13434;BME280;6789;47.678;9.158;2022-12-05T22:04:46;97022.22;;;3.91;100.00
13434;BME280;6789;47.678;9.158;2022-12-05T22:09:40;97035.84;;;3.93;100.00
13434;BME280;6789;47.678;9.158;2022-12-05T22:14:35;97035.13;;;3.99;100.00
13434;BME280;6789;47.678;9.158;2022-12-05T22:19:27;97038.34;;;4.01;100.00
13434;BME280;6789;47.678;9.158;2022-12-05T22:24:26;97038.19;;;4.02;100.00
13434;BME280;6789;47.678;9.158;2022-12-05T22:29:19;97042.59;;;3.94;100.00
13434;BME280;6789;47.678;9.158;2022-12-05T22:34:25;97042.88;;;3.84;100.00
13434;BME280;6789;47.678;9.158;2022-12-05T22:39:19;97042.13;;;3.76;100.00
13434;BME280;6789;47.678;9.158;2022-12-05T22:44:11;97036.72;;;3.63;100.00
13434;BME280;6789;47.678;9.158;2022-12-05T22:49:17;97030.28;;;3.59;100.00
13434;BME280;6789;47.678;9.158;2022-12-05T22:54:23;97036.16;;;3.53;100.00
13434;BME280;6789;47.678;9.158;2022-12-05T22:59:21;97039.91;;;3.51;100.00
13434;BME280;6789;47.678;9.158;2022-12-05T23:04:15;97028.09;;;3.48;100.00
13434;BME280;6789;47.678;9.158;2022-12-05T23:09:09;97025.13;;;3.51;100.00
13434;BME280;6789;47.678;9.158;2022-12-05T23:14:03;97021.94;;;3.49;100.00
13434;BME280;6789;47.678;9.158;2022-12-05T23:19:02;97013.00;;;3.29;100.00
13434;BME280;6789;47.678;9.158;2022-12-05T23:24:11;97010.38;;;3.07;100.00
13434;BME280;6789;47.678;9.158;2022-12-05T23:29:06;97007.56;;;2.94;100.00
13434;BME280;6789;47.678;9.158;2022-12-05T23:33:59;97010.53;;;2.83;100.00
13434;BME280;6789;47.678;9.158;2022-12-05T23:38:54;97009.25;;;2.79;100.00
13434;BME280;6789;47.678;9.158;2022-12-05T23:43:48;97009.16;;;2.65;100.00
13434;BME280;6789;47.678;9.158;2022-12-05T23:48:43;97006.63;;;2.57;100.00
13434;BME280;6789;47.678;9.158;2022-12-05T23:53:39;97009.22;;;2.49;100.00
13434;BME280;6789;47.678;9.158;2022-12-05T23:58:36;97005.69;;;2.42;100.00
